sensor_id;sensor_type;location;lat;lon;timestamp;P1;durP1;ratioP1;P2;durP2;ratioP2
10939;SDS011;5522;42.696;23.494;2023-04-06T00:01:45;12.02;;;9.77;;
10939;SDS011;5522;42.696;23.494;2023-04-06T00:04:13;16.25;;;10.60;;
10939;SDS011;5522;42.696;23.494;2023-04-06T00:06:41;13.93;;;10.32;;
10939;SDS011;5522;42.696;23.494;2023-04-06T00:09:08;12.60;;;9.88;;
10939;SDS011;5522;42.696;23.494;2023-04-06T00:11:34;13.00;;;9.73;;
10939;SDS011;5522;42.696;23.494;2023-04-06T00:14:01;12.35;;;9.70;;
10939;SDS011;5522;42.696;23.494;2023-04-06T00:16:28;14.70;;;9.85;;
10939;SDS011;5522;42.696;23.494;2023-04-06T00:18:55;12.43;;;9.63;;
10939;SDS011;5522;42.696;23.494;2023-04-06T00:21:22;9.95;;;8.88;;
10939;SDS011;5522;42.696;23.494;2023-04-06T00:23:52;12.95;;;9.15;;
10939;SDS011;5522;42.696;23.494;2023-04-06T00:26:18;11.32;;;9.25;;
10939;SDS011;5522;42.696;23.494;2023-04-06T00:28:45;9.85;;;8.65;;
10939;SDS011;5522;42.696;23.494;2023-04-06T00:31:12;10.32;;;9.18;;
10939;SDS011;5522;42.696;23.494;2023-04-06T00:33:40;13.05;;;10.45;;
10939;SDS011;5522;42.696;23.494;2023-04-06T00:36:07;13.18;;;10.20;;
10939;SDS011;5522;42.696;23.494;2023-04-06T00:38:34;14.18;;;10.40;;
10939;SDS011;5522;42.696;23.494;2023-04-06T00:41:02;12.63;;;9.55;;
10939;SDS011;5522;42.696;23.494;2023-04-06T00:43:29;13.80;;;9.80;;
10939;SDS011;5522;42.696;23.494;2023-04-06T00:45:57;14.57;;;10.02;;
10939;SDS011;5522;42.696;23.494;2023-04-06T00:48:24;13.32;;;10.00;;
10939;SDS011;5522;42.696;23.494;2023-04-06T00:50:51;11.02;;;8.70;;
10939;SDS011;5522;42.696;23.494;2023-04-06T00:53:18;11.75;;;8.23;;
10939;SDS011;5522;42.696;23.494;2023-04-06T00:55:45;12.02;;;8.10;;
10939;SDS011;5522;42.696;23.494;2023-04-06T00:58:13;10.25;;;8.00;;
10939;SDS011;5522;42.696;23.494;2023-04-06T01:08:36;10.90;;;8.60;;
10939;SDS011;5522;42.696;23.494;2023-04-06T01:11:03;10.20;;;8.38;;
10939;SDS011;5522;42.696;23.494;2023-04-06T01:13:31;10.77;;;8.65;;
10939;SDS011;5522;42.696;23.494;2023-04-06T01:15:58;9.63;;;7.85;;
10939;SDS011;5522;42.696;23.494;2023-04-06T01:18:26;10.27;;;7.88;;
10939;SDS011;5522;42.696;23.494;2023-04-06T01:20:53;8.63;;;7.20;;
10939;SDS011;5522;42.696;23.494;2023-04-06T01:23:21;9.73;;;7.95;;
10939;SDS011;5522;42.696;23.494;2023-04-06T01:25:48;10.68;;;7.68;;
10939;SDS011;5522;42.696;23.494;2023-04-06T01:28:15;7.15;;;6.40;;
10939;SDS011;5522;42.696;23.494;2023-04-06T01:30:42;9.40;;;7.47;;
10939;SDS011;5522;42.696;23.494;2023-04-06T01:33:09;10.18;;;7.25;;
10939;SDS011;5522;42.696;23.494;2023-04-06T01:35:36;6.80;;;6.20;;
10939;SDS011;5522;42.696;23.494;2023-04-06T01:38:03;9.35;;;7.45;;
10939;SDS011;5522;42.696;23.494;2023-04-06T01:40:31;10.20;;;7.68;;
10939;SDS011;5522;42.696;23.494;2023-04-06T01:42:58;8.45;;;6.78;;
10939;SDS011;5522;42.696;23.494;2023-04-06T01:45:25;7.32;;;6.63;;
10939;SDS011;5522;42.696;23.494;2023-04-06T01:47:52;8.10;;;6.90;;
10939;SDS011;5522;42.696;23.494;2023-04-06T01:50:19;7.80;;;7.10;;
10939;SDS011;5522;42.696;23.494;2023-04-06T01:52:46;10.98;;;7.10;;
10939;SDS011;5522;42.696;23.494;2023-04-06T01:55:12;8.48;;;7.20;;
10939;SDS011;5522;42.696;23.494;2023-04-06T01:57:41;8.38;;;6.65;;
10939;SDS011;5522;42.696;23.494;2023-04-06T02:00:08;7.40;;;6.70;;
10939;SDS011;5522;42.696;23.494;2023-04-06T02:02:36;7.60;;;6.78;;
10939;SDS011;5522;42.696;23.494;2023-04-06T02:05:03;9.10;;;7.25;;
10939;SDS011;5522;42.696;23.494;2023-04-06T02:07:30;7.47;;;6.80;;
10939;SDS011;5522;42.696;23.494;2023-04-06T02:09:57;8.85;;;7.53;;
10939;SDS011;5522;42.696;23.494;2023-04-06T02:12:24;7.70;;;6.88;;
10939;SDS011;5522;42.696;23.494;2023-04-06T02:14:55;8.38;;;7.43;;
10939;SDS011;5522;42.696;23.494;2023-04-06T02:17:21;9.00;;;7.50;;
10939;SDS011;5522;42.696;23.494;2023-04-06T02:19:48;8.32;;;6.53;;
10939;SDS011;5522;42.696;23.494;2023-04-06T02:22:15;10.45;;;7.70;;
10939;SDS011;5522;42.696;23.494;2023-04-06T02:24:42;8.52;;;6.50;;
10939;SDS011;5522;42.696;23.494;2023-04-06T02:27:09;9.35;;;7.55;;
10939;SDS011;5522;42.696;23.494;2023-04-06T02:29:36;13.02;;;8.10;;
10939;SDS011;5522;42.696;23.494;2023-04-06T02:32:04;13.98;;;7.68;;
10939;SDS011;5522;42.696;23.494;2023-04-06T02:34:31;9.20;;;8.25;;
10939;SDS011;5522;42.696;23.494;2023-04-06T02:36:57;11.98;;;8.40;;
10939;SDS011;5522;42.696;23.494;2023-04-06T02:39:24;10.35;;;8.30;;
10939;SDS011;5522;42.696;23.494;2023-04-06T02:41:51;11.48;;;8.52;;
10939;SDS011;5522;42.696;23.494;2023-04-06T02:44:18;9.13;;;8.00;;
10939;SDS011;5522;42.696;23.494;2023-04-06T02:46:45;12.73;;;8.18;;
10939;SDS011;5522;42.696;23.494;2023-04-06T02:49:13;9.77;;;8.65;;
10939;SDS011;5522;42.696;23.494;2023-04-06T02:51:40;10.50;;;8.38;;
10939;SDS011;5522;42.696;23.494;2023-04-06T02:54:07;11.57;;;8.35;;
10939;SDS011;5522;42.696;23.494;2023-04-06T02:56:34;11.60;;;8.20;;
10939;SDS011;5522;42.696;23.494;2023-04-06T02:59:01;11.68;;;8.27;;
10939;SDS011;5522;42.696;23.494;2023-04-06T03:01:27;9.93;;;8.02;;
10939;SDS011;5522;42.696;23.494;2023-04-06T03:03:54;12.52;;;8.95;;
10939;SDS011;5522;42.696;23.494;2023-04-06T03:06:22;11.77;;;8.70;;
10939;SDS011;5522;42.696;23.494;2023-04-06T03:08:49;11.75;;;8.93;;
10939;SDS011;5522;42.696;23.494;2023-04-06T03:11:16;11.50;;;7.97;;
10939;SDS011;5522;42.696;23.494;2023-04-06T03:13:43;11.77;;;9.13;;
10939;SDS011;5522;42.696;23.494;2023-04-06T03:16:10;9.60;;;8.30;;
10939;SDS011;5522;42.696;23.494;2023-04-06T03:18:37;9.38;;;7.50;;
10939;SDS011;5522;42.696;23.494;2023-04-06T03:21:04;10.82;;;9.13;;
10939;SDS011;5522;42.696;23.494;2023-04-06T03:23:32;10.95;;;8.60;;
10939;SDS011;5522;42.696;23.494;2023-04-06T03:26:01;10.25;;;9.05;;
10939;SDS011;5522;42.696;23.494;2023-04-06T03:28:28;11.73;;;8.88;;
10939;SDS011;5522;42.696;23.494;2023-04-06T03:30:55;11.48;;;8.90;;
10939;SDS011;5522;42.696;23.494;2023-04-06T03:33:22;12.73;;;9.27;;
10939;SDS011;5522;42.696;23.494;2023-04-06T03:35:52;11.35;;;9.38;;
10939;SDS011;5522;42.696;23.494;2023-04-06T03:38:19;10.32;;;8.77;;
10939;SDS011;5522;42.696;23.494;2023-04-06T03:40:47;12.70;;;9.50;;
10939;SDS011;5522;42.696;23.494;2023-04-06T03:43:14;11.82;;;9.15;;
10939;SDS011;5522;42.696;23.494;2023-04-06T03:45:40;11.10;;;8.27;;
10939;SDS011;5522;42.696;23.494;2023-04-06T03:48:07;12.68;;;9.48;;
10939;SDS011;5522;42.696;23.494;2023-04-06T03:50:34;10.43;;;8.88;;
10939;SDS011;5522;42.696;23.494;2023-04-06T03:53:01;9.63;;;8.50;;
10939;SDS011;5522;42.696;23.494;2023-04-06T03:55:28;9.38;;;8.35;;
10939;SDS011;5522;42.696;23.494;2023-04-06T03:57:56;9.85;;;8.45;;
10939;SDS011;5522;42.696;23.494;2023-04-06T04:00:23;10.98;;;8.52;;
10939;SDS011;5522;42.696;23.494;2023-04-06T04:02:50;14.90;;;10.02;;
10939;SDS011;5522;42.696;23.494;2023-04-06T04:05:17;12.27;;;8.70;;
10939;SDS011;5522;42.696;23.494;2023-04-06T04:07:44;10.10;;;8.40;;
10939;SDS011;5522;42.696;23.494;2023-04-06T04:10:11;10.38;;;7.95;;
10939;SDS011;5522;42.696;23.494;2023-04-06T04:12:38;10.85;;;8.65;;
10939;SDS011;5522;42.696;23.494;2023-04-06T04:15:06;15.73;;;8.68;;
10939;SDS011;5522;42.696;23.494;2023-04-06T04:17:34;12.85;;;9.23;;
10939;SDS011;5522;42.696;23.494;2023-04-06T04:20:01;13.88;;;9.23;;
10939;SDS011;5522;42.696;23.494;2023-04-06T04:22:28;12.15;;;10.38;;
10939;SDS011;5522;42.696;23.494;2023-04-06T04:24:54;13.43;;;10.55;;
10939;SDS011;5522;42.696;23.494;2023-04-06T04:27:21;13.07;;;10.52;;
10939;SDS011;5522;42.696;23.494;2023-04-06T04:29:48;13.75;;;10.52;;
10939;SDS011;5522;42.696;23.494;2023-04-06T04:32:16;18.65;;;12.27;;
10939;SDS011;5522;42.696;23.494;2023-04-06T04:34:43;14.27;;;9.93;;
10939;SDS011;5522;42.696;23.494;2023-04-06T04:37:10;10.82;;;8.73;;
10939;SDS011;5522;42.696;23.494;2023-04-06T04:39:37;13.07;;;8.55;;
10939;SDS011;5522;42.696;23.494;2023-04-06T04:42:04;15.60;;;9.55;;
10939;SDS011;5522;42.696;23.494;2023-04-06T04:44:31;11.95;;;9.43;;
10939;SDS011;5522;42.696;23.494;2023-04-06T04:46:58;11.50;;;9.73;;
10939;SDS011;5522;42.696;23.494;2023-04-06T04:49:26;11.48;;;9.27;;
10939;SDS011;5522;42.696;23.494;2023-04-06T04:51:53;10.80;;;9.32;;
10939;SDS011;5522;42.696;23.494;2023-04-06T04:54:20;10.68;;;8.40;;
10939;SDS011;5522;42.696;23.494;2023-04-06T04:56:47;12.57;;;10.02;;
10939;SDS011;5522;42.696;23.494;2023-04-06T04:59:13;9.95;;;8.10;;
10939;SDS011;5522;42.696;23.494;2023-04-06T05:01:41;12.40;;;9.38;;
10939;SDS011;5522;42.696;23.494;2023-04-06T05:04:08;12.32;;;9.23;;
10939;SDS011;5522;42.696;23.494;2023-04-06T05:06:36;10.02;;;8.38;;
10939;SDS011;5522;42.696;23.494;2023-04-06T05:09:03;16.42;;;8.80;;
10939;SDS011;5522;42.696;23.494;2023-04-06T05:11:30;12.73;;;8.52;;
10939;SDS011;5522;42.696;23.494;2023-04-06T05:13:57;11.90;;;8.75;;
10939;SDS011;5522;42.696;23.494;2023-04-06T05:16:23;11.05;;;9.35;;
10939;SDS011;5522;42.696;23.494;2023-04-06T05:18:51;11.95;;;9.05;;
10939;SDS011;5522;42.696;23.494;2023-04-06T05:21:18;13.85;;;8.95;;
10939;SDS011;5522;42.696;23.494;2023-04-06T05:23:46;12.40;;;9.02;;
10939;SDS011;5522;42.696;23.494;2023-04-06T05:26:13;9.85;;;8.30;;
10939;SDS011;5522;42.696;23.494;2023-04-06T05:28:40;11.40;;;7.93;;
10939;SDS011;5522;42.696;23.494;2023-04-06T05:31:09;11.30;;;8.30;;
10939;SDS011;5522;42.696;23.494;2023-04-06T05:33:36;8.82;;;7.20;;
10939;SDS011;5522;42.696;23.494;2023-04-06T05:36:03;10.23;;;8.35;;
10939;SDS011;5522;42.696;23.494;2023-04-06T05:38:32;9.35;;;7.88;;
10939;SDS011;5522;42.696;23.494;2023-04-06T05:41:00;11.25;;;8.05;;
10939;SDS011;5522;42.696;23.494;2023-04-06T05:43:27;8.48;;;7.35;;
10939;SDS011;5522;42.696;23.494;2023-04-06T05:45:54;11.10;;;7.63;;
10939;SDS011;5522;42.696;23.494;2023-04-06T05:48:20;10.02;;;7.25;;
10939;SDS011;5522;42.696;23.494;2023-04-06T05:50:48;9.93;;;8.00;;
10939;SDS011;5522;42.696;23.494;2023-04-06T05:53:15;9.20;;;7.13;;
10939;SDS011;5522;42.696;23.494;2023-04-06T05:55:42;9.02;;;7.70;;
10939;SDS011;5522;42.696;23.494;2023-04-06T05:58:10;12.27;;;7.22;;
10939;SDS011;5522;42.696;23.494;2023-04-06T06:00:37;11.55;;;8.15;;
10939;SDS011;5522;42.696;23.494;2023-04-06T06:03:04;8.57;;;7.07;;
10939;SDS011;5522;42.696;23.494;2023-04-06T06:05:31;9.80;;;7.68;;
10939;SDS011;5522;42.696;23.494;2023-04-06T06:07:58;10.10;;;7.78;;
10939;SDS011;5522;42.696;23.494;2023-04-06T06:10:27;9.48;;;8.27;;
10939;SDS011;5522;42.696;23.494;2023-04-06T06:12:54;9.52;;;8.32;;
10939;SDS011;5522;42.696;23.494;2023-04-06T06:15:22;10.52;;;7.50;;
10939;SDS011;5522;42.696;23.494;2023-04-06T06:17:49;9.15;;;7.63;;
10939;SDS011;5522;42.696;23.494;2023-04-06T06:20:16;11.45;;;7.45;;
10939;SDS011;5522;42.696;23.494;2023-04-06T06:22:43;10.77;;;6.72;;
10939;SDS011;5522;42.696;23.494;2023-04-06T06:25:10;9.98;;;7.47;;
10939;SDS011;5522;42.696;23.494;2023-04-06T06:27:37;8.68;;;7.63;;
10939;SDS011;5522;42.696;23.494;2023-04-06T06:30:04;10.98;;;7.18;;
10939;SDS011;5522;42.696;23.494;2023-04-06T06:32:33;9.65;;;7.85;;
10939;SDS011;5522;42.696;23.494;2023-04-06T06:35:00;8.80;;;7.47;;
10939;SDS011;5522;42.696;23.494;2023-04-06T06:37:27;8.95;;;6.97;;
10939;SDS011;5522;42.696;23.494;2023-04-06T06:39:54;10.10;;;6.95;;
10939;SDS011;5522;42.696;23.494;2023-04-06T06:42:21;7.38;;;6.50;;
10939;SDS011;5522;42.696;23.494;2023-04-06T06:44:48;10.75;;;6.72;;
10939;SDS011;5522;42.696;23.494;2023-04-06T06:47:15;8.88;;;6.82;;
10939;SDS011;5522;42.696;23.494;2023-04-06T06:49:43;7.70;;;6.40;;
10939;SDS011;5522;42.696;23.494;2023-04-06T06:52:10;7.72;;;7.03;;
10939;SDS011;5522;42.696;23.494;2023-04-06T06:54:37;10.05;;;6.22;;
10939;SDS011;5522;42.696;23.494;2023-04-06T06:57:03;6.85;;;5.90;;
10939;SDS011;5522;42.696;23.494;2023-04-06T06:59:30;6.90;;;5.85;;
10939;SDS011;5522;42.696;23.494;2023-04-06T07:01:57;9.60;;;6.32;;
10939;SDS011;5522;42.696;23.494;2023-04-06T07:04:24;7.18;;;5.88;;
10939;SDS011;5522;42.696;23.494;2023-04-06T07:06:52;5.50;;;4.90;;
10939;SDS011;5522;42.696;23.494;2023-04-06T07:09:19;6.50;;;5.13;;
10939;SDS011;5522;42.696;23.494;2023-04-06T07:11:46;5.32;;;4.72;;
10939;SDS011;5522;42.696;23.494;2023-04-06T07:14:14;6.45;;;5.82;;
10939;SDS011;5522;42.696;23.494;2023-04-06T07:16:41;5.40;;;4.80;;
10939;SDS011;5522;42.696;23.494;2023-04-06T07:19:10;8.43;;;5.38;;
10939;SDS011;5522;42.696;23.494;2023-04-06T07:21:36;10.25;;;5.57;;
10939;SDS011;5522;42.696;23.494;2023-04-06T07:24:05;6.85;;;5.05;;
10939;SDS011;5522;42.696;23.494;2023-04-06T07:26:32;5.28;;;4.80;;
10939;SDS011;5522;42.696;23.494;2023-04-06T07:28:59;8.98;;;6.20;;
10939;SDS011;5522;42.696;23.494;2023-04-06T07:31:25;5.60;;;5.10;;
10939;SDS011;5522;42.696;23.494;2023-04-06T07:33:52;6.18;;;5.43;;
10939;SDS011;5522;42.696;23.494;2023-04-06T07:36:19;7.43;;;5.68;;
10939;SDS011;5522;42.696;23.494;2023-04-06T07:38:46;6.50;;;5.78;;
10939;SDS011;5522;42.696;23.494;2023-04-06T07:41:15;7.45;;;5.35;;
10939;SDS011;5522;42.696;23.494;2023-04-06T07:43:42;6.68;;;5.30;;
10939;SDS011;5522;42.696;23.494;2023-04-06T07:46:09;7.80;;;6.60;;
10939;SDS011;5522;42.696;23.494;2023-04-06T07:48:35;6.25;;;5.65;;
10939;SDS011;5522;42.696;23.494;2023-04-06T07:51:04;5.63;;;5.05;;
10939;SDS011;5522;42.696;23.494;2023-04-06T07:53:31;6.75;;;6.10;;
10939;SDS011;5522;42.696;23.494;2023-04-06T07:55:58;9.77;;;6.80;;
10939;SDS011;5522;42.696;23.494;2023-04-06T07:58:26;4.80;;;3.88;;
10939;SDS011;5522;42.696;23.494;2023-04-06T08:00:53;5.93;;;5.20;;
10939;SDS011;5522;42.696;23.494;2023-04-06T08:03:21;4.95;;;4.20;;
10939;SDS011;5522;42.696;23.494;2023-04-06T08:05:50;6.10;;;5.00;;
10939;SDS011;5522;42.696;23.494;2023-04-06T08:08:17;9.90;;;5.65;;
10939;SDS011;5522;42.696;23.494;2023-04-06T08:10:46;6.30;;;5.70;;
10939;SDS011;5522;42.696;23.494;2023-04-06T08:13:13;7.40;;;5.45;;
10939;SDS011;5522;42.696;23.494;2023-04-06T08:15:41;9.75;;;6.00;;
10939;SDS011;5522;42.696;23.494;2023-04-06T08:18:08;6.75;;;4.47;;
10939;SDS011;5522;42.696;23.494;2023-04-06T08:20:35;7.18;;;5.30;;
10939;SDS011;5522;42.696;23.494;2023-04-06T08:23:02;7.53;;;5.47;;
10939;SDS011;5522;42.696;23.494;2023-04-06T08:25:29;5.72;;;4.88;;
10939;SDS011;5522;42.696;23.494;2023-04-06T08:27:56;4.78;;;4.38;;
10939;SDS011;5522;42.696;23.494;2023-04-06T08:30:23;5.22;;;4.65;;
10939;SDS011;5522;42.696;23.494;2023-04-06T08:32:51;4.55;;;4.15;;
10939;SDS011;5522;42.696;23.494;2023-04-06T08:35:18;5.05;;;4.38;;
10939;SDS011;5522;42.696;23.494;2023-04-06T08:37:45;9.23;;;4.65;;
10939;SDS011;5522;42.696;23.494;2023-04-06T08:40:12;22.92;;;10.02;;
10939;SDS011;5522;42.696;23.494;2023-04-06T08:42:40;4.40;;;3.92;;
10939;SDS011;5522;42.696;23.494;2023-04-06T08:45:15;4.25;;;3.95;;
10939;SDS011;5522;42.696;23.494;2023-04-06T08:47:42;4.43;;;3.90;;
10939;SDS011;5522;42.696;23.494;2023-04-06T08:50:11;4.55;;;4.28;;
10939;SDS011;5522;42.696;23.494;2023-04-06T08:52:38;4.75;;;4.13;;
10939;SDS011;5522;42.696;23.494;2023-04-06T08:55:07;4.30;;;3.50;;
10939;SDS011;5522;42.696;23.494;2023-04-06T08:57:34;3.92;;;3.55;;
10939;SDS011;5522;42.696;23.494;2023-04-06T09:00:02;5.00;;;4.35;;
10939;SDS011;5522;42.696;23.494;2023-04-06T09:02:32;4.82;;;4.43;;
10939;SDS011;5522;42.696;23.494;2023-04-06T09:04:59;5.57;;;5.10;;
10939;SDS011;5522;42.696;23.494;2023-04-06T09:07:28;4.95;;;4.03;;
10939;SDS011;5522;42.696;23.494;2023-04-06T09:09:56;4.82;;;3.90;;
10939;SDS011;5522;42.696;23.494;2023-04-06T09:12:23;4.45;;;4.07;;
10939;SDS011;5522;42.696;23.494;2023-04-06T09:14:51;4.38;;;3.65;;
10939;SDS011;5522;42.696;23.494;2023-04-06T09:17:22;5.43;;;4.05;;
10939;SDS011;5522;42.696;23.494;2023-04-06T09:19:50;4.35;;;3.95;;
10939;SDS011;5522;42.696;23.494;2023-04-06T09:22:17;3.55;;;3.38;;
10939;SDS011;5522;42.696;23.494;2023-04-06T09:24:47;3.90;;;3.60;;
10939;SDS011;5522;42.696;23.494;2023-04-06T09:27:15;7.68;;;4.00;;
10939;SDS011;5522;42.696;23.494;2023-04-06T09:29:43;4.55;;;4.25;;
10939;SDS011;5522;42.696;23.494;2023-04-06T09:32:11;3.78;;;3.58;;
10939;SDS011;5522;42.696;23.494;2023-04-06T09:34:41;4.90;;;4.05;;
10939;SDS011;5522;42.696;23.494;2023-04-06T09:37:14;3.50;;;3.20;;
10939;SDS011;5522;42.696;23.494;2023-04-06T09:39:41;4.47;;;4.15;;
10939;SDS011;5522;42.696;23.494;2023-04-06T09:42:10;5.35;;;4.85;;
10939;SDS011;5522;42.696;23.494;2023-04-06T09:44:49;7.28;;;4.68;;
10939;SDS011;5522;42.696;23.494;2023-04-06T09:47:16;4.07;;;3.78;;
10939;SDS011;5522;42.696;23.494;2023-04-06T09:49:44;6.55;;;4.07;;
10939;SDS011;5522;42.696;23.494;2023-04-06T09:52:14;5.05;;;2.97;;
10939;SDS011;5522;42.696;23.494;2023-04-06T09:54:43;4.93;;;4.43;;
10939;SDS011;5522;42.696;23.494;2023-04-06T09:57:24;3.70;;;3.50;;
10939;SDS011;5522;42.696;23.494;2023-04-06T09:59:57;4.30;;;3.95;;
10939;SDS011;5522;42.696;23.494;2023-04-06T10:02:34;6.00;;;4.25;;
10939;SDS011;5522;42.696;23.494;2023-04-06T10:05:08;4.68;;;4.38;;
10939;SDS011;5522;42.696;23.494;2023-04-06T10:07:39;4.00;;;3.70;;
10939;SDS011;5522;42.696;23.494;2023-04-06T10:10:08;6.47;;;4.53;;
10939;SDS011;5522;42.696;23.494;2023-04-06T10:12:37;4.80;;;4.47;;
10939;SDS011;5522;42.696;23.494;2023-04-06T10:15:06;5.10;;;4.43;;
10939;SDS011;5522;42.696;23.494;2023-04-06T10:17:33;5.05;;;4.55;;
10939;SDS011;5522;42.696;23.494;2023-04-06T10:20:02;6.13;;;5.10;;
10939;SDS011;5522;42.696;23.494;2023-04-06T10:22:34;4.85;;;4.40;;
10939;SDS011;5522;42.696;23.494;2023-04-06T10:25:07;5.15;;;4.45;;
10939;SDS011;5522;42.696;23.494;2023-04-06T10:27:35;5.68;;;5.18;;
10939;SDS011;5522;42.696;23.494;2023-04-06T10:30:04;6.35;;;4.30;;
10939;SDS011;5522;42.696;23.494;2023-04-06T10:32:33;3.97;;;2.75;;
10939;SDS011;5522;42.696;23.494;2023-04-06T10:35:05;3.35;;;3.15;;
10939;SDS011;5522;42.696;23.494;2023-04-06T10:37:49;7.30;;;3.17;;
10939;SDS011;5522;42.696;23.494;2023-04-06T10:40:23;5.18;;;3.90;;
10939;SDS011;5522;42.696;23.494;2023-04-06T10:42:51;5.47;;;4.00;;
10939;SDS011;5522;42.696;23.494;2023-04-06T10:45:21;5.80;;;3.80;;
10939;SDS011;5522;42.696;23.494;2023-04-06T10:47:48;6.32;;;3.80;;
10939;SDS011;5522;42.696;23.494;2023-04-06T10:50:16;3.92;;;3.67;;
10939;SDS011;5522;42.696;23.494;2023-04-06T10:52:46;4.60;;;4.03;;
10939;SDS011;5522;42.696;23.494;2023-04-06T10:55:13;4.03;;;3.33;;
10939;SDS011;5522;42.696;23.494;2023-04-06T10:57:41;3.65;;;3.45;;
10939;SDS011;5522;42.696;23.494;2023-04-06T11:00:08;4.22;;;3.90;;
10939;SDS011;5522;42.696;23.494;2023-04-06T11:02:39;3.33;;;3.13;;
10939;SDS011;5522;42.696;23.494;2023-04-06T11:05:07;6.28;;;5.18;;
10939;SDS011;5522;42.696;23.494;2023-04-06T11:07:34;5.47;;;4.32;;
10939;SDS011;5522;42.696;23.494;2023-04-06T11:10:01;3.00;;;2.80;;
10939;SDS011;5522;42.696;23.494;2023-04-06T11:12:28;5.88;;;3.67;;
10939;SDS011;5522;42.696;23.494;2023-04-06T11:14:56;3.67;;;3.45;;
10939;SDS011;5522;42.696;23.494;2023-04-06T11:17:28;3.80;;;3.60;;
10939;SDS011;5522;42.696;23.494;2023-04-06T11:19:57;3.53;;;3.28;;
10939;SDS011;5522;42.696;23.494;2023-04-06T11:22:24;2.40;;;2.30;;
10939;SDS011;5522;42.696;23.494;2023-04-06T11:24:52;3.20;;;3.03;;
10939;SDS011;5522;42.696;23.494;2023-04-06T11:27:19;4.05;;;3.72;;
10939;SDS011;5522;42.696;23.494;2023-04-06T11:29:47;3.65;;;2.92;;
10939;SDS011;5522;42.696;23.494;2023-04-06T11:32:20;4.22;;;3.45;;
10939;SDS011;5522;42.696;23.494;2023-04-06T11:34:48;3.72;;;3.45;;
10939;SDS011;5522;42.696;23.494;2023-04-06T11:37:16;6.45;;;3.92;;
10939;SDS011;5522;42.696;23.494;2023-04-06T11:39:46;4.15;;;3.45;;
10939;SDS011;5522;42.696;23.494;2023-04-06T11:42:21;3.05;;;2.85;;
10939;SDS011;5522;42.696;23.494;2023-04-06T11:44:50;4.25;;;3.55;;
10939;SDS011;5522;42.696;23.494;2023-04-06T11:47:18;3.88;;;3.25;;
10939;SDS011;5522;42.696;23.494;2023-04-06T11:49:47;5.00;;;4.05;;
10939;SDS011;5522;42.696;23.494;2023-04-06T11:52:17;3.35;;;3.15;;
10939;SDS011;5522;42.696;23.494;2023-04-06T11:54:45;3.53;;;3.25;;
10939;SDS011;5522;42.696;23.494;2023-04-06T11:57:13;4.63;;;3.88;;
10939;SDS011;5522;42.696;23.494;2023-04-06T11:59:41;3.97;;;3.42;;
10939;SDS011;5522;42.696;23.494;2023-04-06T12:02:08;2.90;;;2.80;;
10939;SDS011;5522;42.696;23.494;2023-04-06T12:04:36;3.20;;;2.85;;
10939;SDS011;5522;42.696;23.494;2023-04-06T12:07:03;4.18;;;3.00;;
10939;SDS011;5522;42.696;23.494;2023-04-06T12:09:32;3.15;;;2.85;;
10939;SDS011;5522;42.696;23.494;2023-04-06T12:12:01;2.83;;;2.45;;
10939;SDS011;5522;42.696;23.494;2023-04-06T12:14:28;5.57;;;5.07;;
10939;SDS011;5522;42.696;23.494;2023-04-06T12:16:55;3.13;;;2.85;;
10939;SDS011;5522;42.696;23.494;2023-04-06T12:19:22;3.00;;;2.88;;
10939;SDS011;5522;42.696;23.494;2023-04-06T12:21:51;2.83;;;2.72;;
10939;SDS011;5522;42.696;23.494;2023-04-06T12:24:18;3.22;;;3.03;;
10939;SDS011;5522;42.696;23.494;2023-04-06T12:26:47;3.88;;;3.50;;
10939;SDS011;5522;42.696;23.494;2023-04-06T12:29:14;2.67;;;2.58;;
10939;SDS011;5522;42.696;23.494;2023-04-06T12:31:40;3.25;;;3.10;;
10939;SDS011;5522;42.696;23.494;2023-04-06T12:34:09;4.47;;;4.15;;
10939;SDS011;5522;42.696;23.494;2023-04-06T12:36:36;3.08;;;2.88;;
10939;SDS011;5522;42.696;23.494;2023-04-06T12:39:03;3.20;;;3.03;;
10939;SDS011;5522;42.696;23.494;2023-04-06T12:41:31;2.35;;;2.15;;
10939;SDS011;5522;42.696;23.494;2023-04-06T12:43:59;5.45;;;3.22;;
10939;SDS011;5522;42.696;23.494;2023-04-06T12:46:27;3.72;;;3.42;;
10939;SDS011;5522;42.696;23.494;2023-04-06T12:48:55;3.75;;;3.45;;
10939;SDS011;5522;42.696;23.494;2023-04-06T12:51:22;3.28;;;2.97;;
10939;SDS011;5522;42.696;23.494;2023-04-06T12:53:50;3.97;;;3.78;;
10939;SDS011;5522;42.696;23.494;2023-04-06T12:56:17;4.82;;;3.58;;
10939;SDS011;5522;42.696;23.494;2023-04-06T12:58:46;3.90;;;3.60;;
10939;SDS011;5522;42.696;23.494;2023-04-06T13:01:14;5.28;;;3.95;;
10939;SDS011;5522;42.696;23.494;2023-04-06T13:03:41;3.63;;;3.42;;
10939;SDS011;5522;42.696;23.494;2023-04-06T13:06:08;3.95;;;3.65;;
10939;SDS011;5522;42.696;23.494;2023-04-06T13:08:35;2.78;;;2.58;;
10939;SDS011;5522;42.696;23.494;2023-04-06T13:11:03;3.53;;;3.22;;
10939;SDS011;5522;42.696;23.494;2023-04-06T13:13:33;2.78;;;2.58;;
10939;SDS011;5522;42.696;23.494;2023-04-06T13:16:01;2.55;;;2.00;;
10939;SDS011;5522;42.696;23.494;2023-04-06T13:18:30;4.32;;;2.30;;
10939;SDS011;5522;42.696;23.494;2023-04-06T13:20:57;2.08;;;1.90;;
10939;SDS011;5522;42.696;23.494;2023-04-06T13:23:25;4.13;;;2.35;;
10939;SDS011;5522;42.696;23.494;2023-04-06T13:25:59;4.38;;;1.90;;
10939;SDS011;5522;42.696;23.494;2023-04-06T13:28:27;2.75;;;2.55;;
10939;SDS011;5522;42.696;23.494;2023-04-06T13:30:54;3.45;;;3.17;;
10939;SDS011;5522;42.696;23.494;2023-04-06T13:33:21;3.72;;;3.03;;
10939;SDS011;5522;42.696;23.494;2023-04-06T13:35:50;10.55;;;5.50;;
10939;SDS011;5522;42.696;23.494;2023-04-06T13:38:17;3.88;;;3.55;;
10939;SDS011;5522;42.696;23.494;2023-04-06T13:40:43;4.85;;;2.90;;
10939;SDS011;5522;42.696;23.494;2023-04-06T13:43:10;2.75;;;2.00;;
10939;SDS011;5522;42.696;23.494;2023-04-06T13:45:37;3.58;;;2.63;;
10939;SDS011;5522;42.696;23.494;2023-04-06T13:48:05;3.58;;;2.53;;
10939;SDS011;5522;42.696;23.494;2023-04-06T13:50:32;3.47;;;3.00;;
10939;SDS011;5522;42.696;23.494;2023-04-06T13:53:00;3.47;;;3.28;;
10939;SDS011;5522;42.696;23.494;2023-04-06T13:55:27;3.45;;;3.22;;
10939;SDS011;5522;42.696;23.494;2023-04-06T13:57:55;2.92;;;2.40;;
10939;SDS011;5522;42.696;23.494;2023-04-06T14:00:22;3.92;;;2.63;;
10939;SDS011;5522;42.696;23.494;2023-04-06T14:02:49;7.55;;;3.08;;
10939;SDS011;5522;42.696;23.494;2023-04-06T14:05:16;2.67;;;2.42;;
10939;SDS011;5522;42.696;23.494;2023-04-06T14:07:43;3.05;;;2.85;;
10939;SDS011;5522;42.696;23.494;2023-04-06T14:10:12;6.47;;;3.20;;
10939;SDS011;5522;42.696;23.494;2023-04-06T14:12:40;4.20;;;3.22;;
10939;SDS011;5522;42.696;23.494;2023-04-06T14:15:08;3.22;;;3.05;;
10939;SDS011;5522;42.696;23.494;2023-04-06T14:17:36;2.17;;;2.08;;
10939;SDS011;5522;42.696;23.494;2023-04-06T14:20:03;10.25;;;3.13;;
10939;SDS011;5522;42.696;23.494;2023-04-06T14:22:31;3.25;;;2.78;;
10939;SDS011;5522;42.696;23.494;2023-04-06T14:24:58;3.72;;;3.40;;
10939;SDS011;5522;42.696;23.494;2023-04-06T14:27:26;4.80;;;4.22;;
10939;SDS011;5522;42.696;23.494;2023-04-06T14:29:53;4.70;;;3.28;;
10939;SDS011;5522;42.696;23.494;2023-04-06T14:32:21;4.60;;;2.78;;
10939;SDS011;5522;42.696;23.494;2023-04-06T14:34:48;4.40;;;3.72;;
10939;SDS011;5522;42.696;23.494;2023-04-06T14:37:15;3.95;;;3.20;;
10939;SDS011;5522;42.696;23.494;2023-04-06T14:39:42;4.90;;;4.50;;
10939;SDS011;5522;42.696;23.494;2023-04-06T14:42:09;4.63;;;3.85;;
10939;SDS011;5522;42.696;23.494;2023-04-06T14:44:37;4.70;;;3.67;;
10939;SDS011;5522;42.696;23.494;2023-04-06T14:47:08;5.57;;;3.70;;
10939;SDS011;5522;42.696;23.494;2023-04-06T14:49:34;3.63;;;3.33;;
10939;SDS011;5522;42.696;23.494;2023-04-06T14:52:02;3.75;;;3.58;;
10939;SDS011;5522;42.696;23.494;2023-04-06T14:54:28;4.53;;;3.65;;